sensor_id;sensor_type;location;lat;lon;timestamp;pressure;altitude;pressure_sealevel;temperature;humidity
75146;BME280;63641;46.526;24.612;2022-11-15T00:00:55;97893.97;;;1.87;78.12
75146;BME280;63641;46.526;24.612;2022-11-15T00:03:24;97893.38;;;1.85;77.97
75146;BME280;63641;46.526;24.612;2022-11-15T00:05:51;97889.47;;;1.87;78.27
75146;BME280;63641;46.526;24.612;2022-11-15T00:08:18;97890.31;;;1.88;78.01
75146;BME280;63641;46.526;24.612;2022-11-15T00:10:59;97894.78;;;1.87;78.12
75146;BME280;63641;46.526;24.612;2022-11-15T00:13:27;97892.75;;;1.83;78.00
75146;BME280;63641;46.526;24.612;2022-11-15T00:15:57;97891.53;;;1.85;78.01
75146;BME280;63641;46.526;24.612;2022-11-15T00:18:25;97874.72;;;1.85;78.29
75146;BME280;63641;46.526;24.612;2022-11-15T00:20:52;97885.97;;;1.87;77.95
75146;BME280;63641;46.526;24.612;2022-11-15T00:23:19;97884.56;;;1.84;78.09
75146;BME280;63641;46.526;24.612;2022-11-15T00:25:46;97870.59;;;1.82;77.94
75146;BME280;63641;46.526;24.612;2022-11-15T00:28:12;97865.03;;;1.84;78.14
75146;BME280;63641;46.526;24.612;2022-11-15T00:30:39;97865.50;;;1.81;78.26
75146;BME280;63641;46.526;24.612;2022-11-15T00:33:06;97872.25;;;1.77;78.33
75146;BME280;63641;46.526;24.612;2022-11-15T00:35:34;97858.72;;;1.78;77.87
75146;BME280;63641;46.526;24.612;2022-11-15T00:38:02;97859.94;;;1.76;77.78
75146;BME280;63641;46.526;24.612;2022-11-15T00:40:29;97870.63;;;1.76;77.95
75146;BME280;63641;46.526;24.612;2022-11-15T00:42:56;97857.50;;;1.74;78.07
75146;BME280;63641;46.526;24.612;2022-11-15T00:45:23;97861.41;;;1.72;77.84
75146;BME280;63641;46.526;24.612;2022-11-15T00:47:50;97854.88;;;1.61;78.18
75146;BME280;63641;46.526;24.612;2022-11-15T00:50:17;97858.59;;;1.53;78.39
75146;BME280;63641;46.526;24.612;2022-11-15T00:52:44;97859.63;;;1.52;78.34
75146;BME280;63641;46.526;24.612;2022-11-15T00:55:19;97851.44;;;1.47;78.02
75146;BME280;63641;46.526;24.612;2022-11-15T00:57:46;97850.22;;;1.43;78.04
75146;BME280;63641;46.526;24.612;2022-11-15T01:00:13;97845.28;;;1.40;78.07
75146;BME280;63641;46.526;24.612;2022-11-15T01:02:40;97835.91;;;1.31;78.39
75146;BME280;63641;46.526;24.612;2022-11-15T01:05:07;97835.09;;;1.24;78.04
75146;BME280;63641;46.526;24.612;2022-11-15T01:07:34;97830.00;;;1.15;78.04
75146;BME280;63641;46.526;24.612;2022-11-15T01:10:01;97832.03;;;1.13;78.54
75146;BME280;63641;46.526;24.612;2022-11-15T01:12:29;97832.25;;;1.12;78.79
75146;BME280;63641;46.526;24.612;2022-11-15T01:14:55;97832.69;;;1.09;78.27
75146;BME280;63641;46.526;24.612;2022-11-15T01:17:22;97830.84;;;1.03;78.53
75146;BME280;63641;46.526;24.612;2022-11-15T01:19:49;97831.69;;;1.03;78.51
75146;BME280;63641;46.526;24.612;2022-11-15T01:22:16;97828.16;;;1.03;78.61
75146;BME280;63641;46.526;24.612;2022-11-15T01:24:42;97826.13;;;1.05;78.64
75146;BME280;63641;46.526;24.612;2022-11-15T01:27:09;97817.72;;;1.08;78.91
75146;BME280;63641;46.526;24.612;2022-11-15T01:29:36;97821.59;;;1.12;78.57
75146;BME280;63641;46.526;24.612;2022-11-15T01:32:03;97819.75;;;1.12;78.78
75146;BME280;63641;46.526;24.612;2022-11-15T01:34:30;97818.13;;;1.11;78.49
75146;BME280;63641;46.526;24.612;2022-11-15T01:36:56;97814.84;;;1.09;78.56
75146;BME280;63641;46.526;24.612;2022-11-15T01:39:23;97816.06;;;1.07;78.88
75146;BME280;63641;46.526;24.612;2022-11-15T01:41:50;97809.50;;;1.03;78.55
75146;BME280;63641;46.526;24.612;2022-11-15T01:44:48;97808.09;;;1.00;78.94
75146;BME280;63641;46.526;24.612;2022-11-15T01:47:31;97808.50;;;0.97;78.81
75146;BME280;63641;46.526;24.612;2022-11-15T01:50:02;97810.56;;;0.95;79.14
75146;BME280;63641;46.526;24.612;2022-11-15T01:52:32;97808.91;;;1.01;79.24
75146;BME280;63641;46.526;24.612;2022-11-15T01:55:02;97805.03;;;1.03;78.88
75146;BME280;63641;46.526;24.612;2022-11-15T01:57:30;97800.94;;;1.01;78.94
75146;BME280;63641;46.526;24.612;2022-11-15T01:59:58;97799.06;;;1.01;78.88
75146;BME280;63641;46.526;24.612;2022-11-15T02:02:26;97799.88;;;1.02;78.81
75146;BME280;63641;46.526;24.612;2022-11-15T02:04:53;97792.28;;;1.05;79.48
75146;BME280;63641;46.526;24.612;2022-11-15T02:07:21;97799.25;;;1.13;79.14
75146;BME280;63641;46.526;24.612;2022-11-15T02:09:49;97800.88;;;1.14;79.10
75146;BME280;63641;46.526;24.612;2022-11-15T02:12:19;97793.28;;;1.17;79.03
75146;BME280;63641;46.526;24.612;2022-11-15T02:14:51;97792.66;;;1.22;79.04
75146;BME280;63641;46.526;24.612;2022-11-15T02:20:22;97784.03;;;1.33;79.20
75146;BME280;63641;46.526;24.612;2022-11-15T02:25:37;97779.25;;;1.42;78.99
75146;BME280;63641;46.526;24.612;2022-11-15T02:31:06;97775.13;;;1.46;79.11
75146;BME280;63641;46.526;24.612;2022-11-15T02:34:14;97777.22;;;1.44;78.76
75146;BME280;63641;46.526;24.612;2022-11-15T02:39:15;97771.88;;;1.44;78.85
75146;BME280;63641;46.526;24.612;2022-11-15T02:41:53;97768.19;;;1.45;78.95
75146;BME280;63641;46.526;24.612;2022-11-15T02:44:28;97764.88;;;1.43;79.01
75146;BME280;63641;46.526;24.612;2022-11-15T02:47:08;97768.81;;;1.40;78.67
75146;BME280;63641;46.526;24.612;2022-11-15T02:49:47;97770.88;;;1.38;78.74
75146;BME280;63641;46.526;24.612;2022-11-15T02:52:21;97769.00;;;1.39;79.05
75146;BME280;63641;46.526;24.612;2022-11-15T02:54:56;97768.19;;;1.38;78.96
75146;BME280;63641;46.526;24.612;2022-11-15T03:00:15;97758.34;;;1.39;78.90
75146;BME280;63641;46.526;24.612;2022-11-15T03:05:41;97758.19;;;1.34;78.80
75146;BME280;63641;46.526;24.612;2022-11-15T03:16:36;97754.47;;;1.35;78.72
75146;BME280;63641;46.526;24.612;2022-11-15T03:19:28;97755.69;;;1.32;79.03
75146;BME280;63641;46.526;24.612;2022-11-15T03:21:58;97752.06;;;1.27;78.72
75146;BME280;63641;46.526;24.612;2022-11-15T03:24:28;97752.47;;;1.24;78.61
75146;BME280;63641;46.526;24.612;2022-11-15T03:26:59;97757.22;;;1.22;78.67
75146;BME280;63641;46.526;24.612;2022-11-15T03:29:32;97757.63;;;1.18;78.99
75146;BME280;63641;46.526;24.612;2022-11-15T03:32:04;97749.81;;;1.17;78.98
75146;BME280;63641;46.526;24.612;2022-11-15T03:34:55;97743.91;;;1.15;78.86
75146;BME280;63641;46.526;24.612;2022-11-15T03:40:17;97746.56;;;1.08;78.90
75146;BME280;63641;46.526;24.612;2022-11-15T03:46:07;97748.63;;;1.06;78.59
75146;BME280;63641;46.526;24.612;2022-11-15T03:48:42;97745.38;;;1.04;78.78
75146;BME280;63641;46.526;24.612;2022-11-15T03:51:10;97744.31;;;1.05;78.82
75146;BME280;63641;46.526;24.612;2022-11-15T03:53:37;97741.66;;;1.05;78.68
75146;BME280;63641;46.526;24.612;2022-11-15T03:56:04;97739.41;;;1.02;78.69
75146;BME280;63641;46.526;24.612;2022-11-15T03:58:31;97736.56;;;0.97;78.68
75146;BME280;63641;46.526;24.612;2022-11-15T04:00:58;97739.03;;;0.92;78.44
75146;BME280;63641;46.526;24.612;2022-11-15T04:03:26;97731.47;;;0.89;78.49
75146;BME280;63641;46.526;24.612;2022-11-15T04:05:52;97734.34;;;0.87;78.69
75146;BME280;63641;46.526;24.612;2022-11-15T04:08:19;97733.94;;;0.84;78.60
75146;BME280;63641;46.526;24.612;2022-11-15T04:10:48;97729.63;;;0.83;78.97
75146;BME280;63641;46.526;24.612;2022-11-15T04:13:15;97733.94;;;0.84;78.90
75146;BME280;63641;46.526;24.612;2022-11-15T04:15:42;97724.09;;;0.84;78.82
75146;BME280;63641;46.526;24.612;2022-11-15T04:18:09;97716.94;;;0.85;78.60
75146;BME280;63641;46.526;24.612;2022-11-15T04:20:35;97724.09;;;0.84;78.62
75146;BME280;63641;46.526;24.612;2022-11-15T04:23:22;97722.06;;;0.80;78.55
75146;BME280;63641;46.526;24.612;2022-11-15T04:26:13;97719.22;;;0.75;78.54
75146;BME280;63641;46.526;24.612;2022-11-15T04:28:41;97723.09;;;0.72;78.54
75146;BME280;63641;46.526;24.612;2022-11-15T04:31:27;97725.56;;;0.73;78.58
75146;BME280;63641;46.526;24.612;2022-11-15T04:33:54;97724.53;;;0.75;78.80
75146;BME280;63641;46.526;24.612;2022-11-15T04:36:21;97721.88;;;0.75;78.59
75146;BME280;63641;46.526;24.612;2022-11-15T04:39:07;97714.50;;;0.70;78.39
75146;BME280;63641;46.526;24.612;2022-11-15T04:41:34;97714.72;;;0.68;78.61
75146;BME280;63641;46.526;24.612;2022-11-15T04:44:01;97717.78;;;0.65;78.55
75146;BME280;63641;46.526;24.612;2022-11-15T04:46:28;97714.31;;;0.65;78.61
75146;BME280;63641;46.526;24.612;2022-11-15T04:48:54;97714.31;;;0.65;78.88
75146;BME280;63641;46.526;24.612;2022-11-15T04:51:25;97720.44;;;0.65;78.88
75146;BME280;63641;46.526;24.612;2022-11-15T04:53:52;97720.44;;;0.65;78.65
75146;BME280;63641;46.526;24.612;2022-11-15T04:56:19;97715.97;;;0.59;79.03
75146;BME280;63641;46.526;24.612;2022-11-15T04:58:48;97720.47;;;0.59;78.81
75146;BME280;63641;46.526;24.612;2022-11-15T05:01:15;97723.34;;;0.57;78.84
75146;BME280;63641;46.526;24.612;2022-11-15T05:03:43;97724.38;;;0.56;78.89
75146;BME280;63641;46.526;24.612;2022-11-15T05:06:29;97722.31;;;0.58;79.23
75146;BME280;63641;46.526;24.612;2022-11-15T05:08:56;97727.63;;;0.58;79.15
75146;BME280;63641;46.526;24.612;2022-11-15T05:11:23;97726.00;;;0.57;78.99
75146;BME280;63641;46.526;24.612;2022-11-15T05:13:50;97735.22;;;0.55;78.83
75146;BME280;63641;46.526;24.612;2022-11-15T05:16:17;97718.03;;;0.51;78.75
75146;BME280;63641;46.526;24.612;2022-11-15T05:18:44;97720.09;;;0.48;79.32
75146;BME280;63641;46.526;24.612;2022-11-15T05:21:13;97728.25;;;0.47;79.16
75146;BME280;63641;46.526;24.612;2022-11-15T05:23:40;97730.75;;;0.48;79.09
75146;BME280;63641;46.526;24.612;2022-11-15T05:26:08;97728.06;;;0.48;79.52
75146;BME280;63641;46.526;24.612;2022-11-15T05:28:35;97714.56;;;0.43;79.37
75146;BME280;63641;46.526;24.612;2022-11-15T05:31:08;97720.50;;;0.45;79.28
75146;BME280;63641;46.526;24.612;2022-11-15T05:33:38;97728.50;;;0.45;79.73
75146;BME280;63641;46.526;24.612;2022-11-15T05:36:38;97721.31;;;0.46;79.45
75146;BME280;63641;46.526;24.612;2022-11-15T05:39:07;97719.88;;;0.43;79.42
75146;BME280;63641;46.526;24.612;2022-11-15T05:41:44;97725.00;;;0.45;79.57
75146;BME280;63641;46.526;24.612;2022-11-15T05:44:15;97723.75;;;0.47;79.80
75146;BME280;63641;46.526;24.612;2022-11-15T05:46:44;97726.22;;;0.49;79.60
75146;BME280;63641;46.526;24.612;2022-11-15T05:49:13;97728.25;;;0.54;79.90
75146;BME280;63641;46.526;24.612;2022-11-15T05:51:43;97735.84;;;0.57;79.95
75146;BME280;63641;46.526;24.612;2022-11-15T05:54:11;97730.72;;;0.55;79.85
75146;BME280;63641;46.526;24.612;2022-11-15T05:56:38;97727.44;;;0.53;79.71
75146;BME280;63641;46.526;24.612;2022-11-15T05:59:06;97727.03;;;0.50;79.62
75146;BME280;63641;46.526;24.612;2022-11-15T06:01:33;97727.66;;;0.45;79.64
75146;BME280;63641;46.526;24.612;2022-11-15T06:04:00;97725.19;;;0.43;79.74
75146;BME280;63641;46.526;24.612;2022-11-15T06:06:28;97724.59;;;0.41;80.23
75146;BME280;63641;46.526;24.612;2022-11-15T06:08:55;97728.09;;;0.42;80.21
75146;BME280;63641;46.526;24.612;2022-11-15T06:11:22;97733.81;;;0.45;80.13
75146;BME280;63641;46.526;24.612;2022-11-15T06:13:48;97733.41;;;0.48;80.02
75146;BME280;63641;46.526;24.612;2022-11-15T06:16:15;97735.44;;;0.53;80.05
75146;BME280;63641;46.526;24.612;2022-11-15T06:18:42;97738.28;;;0.58;80.13
75146;BME280;63641;46.526;24.612;2022-11-15T06:21:09;97731.50;;;0.62;79.93
75146;BME280;63641;46.526;24.612;2022-11-15T06:23:36;97742.56;;;0.66;79.76
75146;BME280;63641;46.526;24.612;2022-11-15T06:26:03;97736.44;;;0.65;79.84
75146;BME280;63641;46.526;24.612;2022-11-15T06:28:31;97738.09;;;0.66;79.75
75146;BME280;63641;46.526;24.612;2022-11-15T06:31:06;97723.75;;;0.61;79.82
75146;BME280;63641;46.526;24.612;2022-11-15T06:33:33;97732.38;;;0.56;79.54
75146;BME280;63641;46.526;24.612;2022-11-15T06:36:05;97720.06;;;0.55;79.87
75146;BME280;63641;46.526;24.612;2022-11-15T06:38:32;97723.75;;;0.54;79.73
75146;BME280;63641;46.526;24.612;2022-11-15T06:41:07;97720.09;;;0.48;79.97
75146;BME280;63641;46.526;24.612;2022-11-15T06:43:34;97728.06;;;0.48;79.81
75146;BME280;63641;46.526;24.612;2022-11-15T06:46:03;97723.16;;;0.52;80.27
75146;BME280;63641;46.526;24.612;2022-11-15T06:48:31;97723.34;;;0.57;79.90
75146;BME280;63641;46.526;24.612;2022-11-15T06:50:59;97720.28;;;0.60;80.06
75146;BME280;63641;46.526;24.612;2022-11-15T06:53:27;97722.53;;;0.63;79.91
75146;BME280;63641;46.526;24.612;2022-11-15T06:55:58;97730.09;;;0.66;79.79
75146;BME280;63641;46.526;24.612;2022-11-15T06:58:25;97727.00;;;0.69;79.54
75146;BME280;63641;46.526;24.612;2022-11-15T07:00:51;97718.41;;;0.67;79.76
75146;BME280;63641;46.526;24.612;2022-11-15T07:03:18;97720.84;;;0.76;79.72
75146;BME280;63641;46.526;24.612;2022-11-15T07:05:55;97726.97;;;0.83;79.93
75146;BME280;63641;46.526;24.612;2022-11-15T07:08:24;97723.28;;;0.84;79.26
75146;BME280;63641;46.526;24.612;2022-11-15T07:10:53;97717.53;;;0.87;79.31
75146;BME280;63641;46.526;24.612;2022-11-15T07:13:24;97710.97;;;0.89;79.46
75146;BME280;63641;46.526;24.612;2022-11-15T07:15:52;97709.53;;;0.93;79.13
75146;BME280;63641;46.526;24.612;2022-11-15T07:18:19;97701.72;;;0.92;79.70
75146;BME280;63641;46.526;24.612;2022-11-15T07:20:46;97699.03;;;0.99;79.44
75146;BME280;63641;46.526;24.612;2022-11-15T07:23:12;97707.66;;;1.01;79.17
75146;BME280;63641;46.526;24.612;2022-11-15T07:25:39;97699.25;;;1.04;79.21
75146;BME280;63641;46.526;24.612;2022-11-15T07:28:06;97692.88;;;1.05;79.10
75146;BME280;63641;46.526;24.612;2022-11-15T07:30:33;97700.25;;;1.09;79.39
75146;BME280;63641;46.526;24.612;2022-11-15T07:33:00;97695.72;;;1.10;79.02
75146;BME280;63641;46.526;24.612;2022-11-15T07:35:28;97701.88;;;1.10;79.35
75146;BME280;63641;46.526;24.612;2022-11-15T07:38:00;97693.28;;;1.08;79.22
75146;BME280;63641;46.526;24.612;2022-11-15T07:40:28;97695.31;;;1.13;79.47
75146;BME280;63641;46.526;24.612;2022-11-15T07:43:04;97692.84;;;1.18;79.11
75146;BME280;63641;46.526;24.612;2022-11-15T07:45:31;97691.56;;;1.20;79.34
75146;BME280;63641;46.526;24.612;2022-11-15T07:48:01;97681.72;;;1.21;79.38
75146;BME280;63641;46.526;24.612;2022-11-15T07:50:28;97686.63;;;1.24;79.50
75146;BME280;63641;46.526;24.612;2022-11-15T07:52:57;97682.50;;;1.28;79.48
75146;BME280;63641;46.526;24.612;2022-11-15T07:55:25;97674.50;;;1.35;79.29
75146;BME280;63641;46.526;24.612;2022-11-15T07:58:00;97672.59;;;1.42;79.48
75146;BME280;63641;46.526;24.612;2022-11-15T08:00:27;97676.66;;;1.51;79.40
75146;BME280;63641;46.526;24.612;2022-11-15T08:03:10;97681.13;;;1.57;79.15
75146;BME280;63641;46.526;24.612;2022-11-15T08:05:39;97677.00;;;1.61;79.41
75146;BME280;63641;46.526;24.612;2022-11-15T08:08:07;97675.53;;;1.65;79.29
75146;BME280;63641;46.526;24.612;2022-11-15T08:10:35;97667.09;;;1.68;78.86
75146;BME280;63641;46.526;24.612;2022-11-15T08:13:08;97669.94;;;1.74;79.10
75146;BME280;63641;46.526;24.612;2022-11-15T08:15:36;97677.28;;;1.78;79.00
75146;BME280;63641;46.526;24.612;2022-11-15T08:18:06;97672.34;;;1.82;79.27
75146;BME280;63641;46.526;24.612;2022-11-15T08:20:33;97673.53;;;1.86;79.14
75146;BME280;63641;46.526;24.612;2022-11-15T08:23:02;97680.06;;;1.90;79.15
75146;BME280;63641;46.526;24.612;2022-11-15T08:25:31;97676.38;;;1.91;79.16
75146;BME280;63641;46.526;24.612;2022-11-15T08:28:04;97670.16;;;1.97;79.13
75146;BME280;63641;46.526;24.612;2022-11-15T08:30:35;97668.69;;;2.01;78.84
75146;BME280;63641;46.526;24.612;2022-11-15T08:33:03;97661.06;;;2.05;78.70
75146;BME280;63641;46.526;24.612;2022-11-15T08:35:31;97662.25;;;2.09;78.63
75146;BME280;63641;46.526;24.612;2022-11-15T08:37:57;97656.50;;;2.12;78.79
75146;BME280;63641;46.526;24.612;2022-11-15T08:40:24;97654.44;;;2.14;78.77
75146;BME280;63641;46.526;24.612;2022-11-15T08:42:51;97652.59;;;2.14;78.69
75146;BME280;63641;46.526;24.612;2022-11-15T08:45:17;97643.28;;;2.17;78.82
75146;BME280;63641;46.526;24.612;2022-11-15T08:47:44;97631.16;;;2.21;78.96
75146;BME280;63641;46.526;24.612;2022-11-15T08:50:19;97628.78;;;2.31;78.93
75146;BME280;63641;46.526;24.612;2022-11-15T08:52:46;97629.34;;;2.40;78.85
75146;BME280;63641;46.526;24.612;2022-11-15T08:55:14;97632.75;;;2.47;78.75
75146;BME280;63641;46.526;24.612;2022-11-15T08:57:43;97616.63;;;2.54;78.62
75146;BME280;63641;46.526;24.612;2022-11-15T09:00:10;97626.81;;;2.63;78.73
75146;BME280;63641;46.526;24.612;2022-11-15T09:02:39;97609.91;;;2.70;78.79
75146;BME280;63641;46.526;24.612;2022-11-15T09:05:07;97607.50;;;2.80;78.75
75146;BME280;63641;46.526;24.612;2022-11-15T09:07:34;97605.09;;;2.90;78.49
75146;BME280;63641;46.526;24.612;2022-11-15T09:10:01;97606.88;;;2.96;78.84
75146;BME280;63641;46.526;24.612;2022-11-15T09:12:28;97600.84;;;3.01;78.70
75146;BME280;63641;46.526;24.612;2022-11-15T09:14:54;97604.72;;;3.05;79.09
75146;BME280;63641;46.526;24.612;2022-11-15T09:17:21;97599.16;;;3.06;79.05
75146;BME280;63641;46.526;24.612;2022-11-15T09:19:50;97594.97;;;3.10;78.85
75146;BME280;63641;46.526;24.612;2022-11-15T09:22:18;97602.31;;;3.15;78.85
75146;BME280;63641;46.526;24.612;2022-11-15T09:24:44;97593.47;;;3.14;78.67
75146;BME280;63641;46.526;24.612;2022-11-15T09:27:11;97588.72;;;3.17;78.89
75146;BME280;63641;46.526;24.612;2022-11-15T09:29:39;97578.38;;;3.20;78.85
75146;BME280;63641;46.526;24.612;2022-11-15T09:32:05;97580.38;;;3.25;78.80
75146;BME280;63641;46.526;24.612;2022-11-15T09:34:32;97567.13;;;3.30;79.05
75146;BME280;63641;46.526;24.612;2022-11-15T09:36:59;97574.00;;;3.37;78.93
75146;BME280;63641;46.526;24.612;2022-11-15T09:39:26;97570.78;;;3.47;78.93
75146;BME280;63641;46.526;24.612;2022-11-15T09:45:24;97552.06;;;3.59;78.75
75146;BME280;63641;46.526;24.612;2022-11-15T09:50:45;97546.47;;;3.60;78.90
75146;BME280;63641;46.526;24.612;2022-11-15T09:53:31;97541.84;;;3.68;78.58
75146;BME280;63641;46.526;24.612;2022-11-15T09:56:28;97550.34;;;3.76;78.62
75146;BME280;63641;46.526;24.612;2022-11-15T10:04:04;97545.91;;;3.94;78.38
75146;BME280;63641;46.526;24.612;2022-11-15T10:06:43;97544.66;;;3.96;78.61
75146;BME280;63641;46.526;24.612;2022-11-15T10:09:40;97531.72;;;4.05;78.59
75146;BME280;63641;46.526;24.612;2022-11-15T10:12:10;97532.66;;;4.10;78.61
75146;BME280;63641;46.526;24.612;2022-11-15T10:14:39;97527.88;;;4.13;78.79
75146;BME280;63641;46.526;24.612;2022-11-15T10:17:31;97529.59;;;4.19;78.82
75146;BME280;63641;46.526;24.612;2022-11-15T10:20:20;97515.50;;;4.23;78.61
75146;BME280;63641;46.526;24.612;2022-11-15T10:22:50;97507.97;;;4.20;78.55
75146;BME280;63641;46.526;24.612;2022-11-15T10:25:29;97502.25;;;4.17;78.50
75146;BME280;63641;46.526;24.612;2022-11-15T10:28:11;97505.63;;;4.12;78.49
75146;BME280;63641;46.526;24.612;2022-11-15T10:30:42;97501.31;;;4.11;78.75
75146;BME280;63641;46.526;24.612;2022-11-15T10:35:43;97493.16;;;4.18;78.55
75146;BME280;63641;46.526;24.612;2022-11-15T10:38:11;97495.13;;;4.22;78.51
75146;BME280;63641;46.526;24.612;2022-11-15T10:40:40;97493.38;;;4.28;78.77
75146;BME280;63641;46.526;24.612;2022-11-15T10:45:37;97486.94;;;4.41;78.37
75146;BME280;63641;46.526;24.612;2022-11-15T10:50:45;97481.56;;;4.41;78.57
75146;BME280;63641;46.526;24.612;2022-11-15T10:53:21;97477.38;;;4.45;78.54
75146;BME280;63641;46.526;24.612;2022-11-15T10:55:52;97465.22;;;4.54;78.65
75146;BME280;63641;46.526;24.612;2022-11-15T10:58:36;97461.22;;;4.68;78.61
75146;BME280;63641;46.526;24.612;2022-11-15T11:01:18;97457.19;;;4.82;78.41
75146;BME280;63641;46.526;24.612;2022-11-15T11:04:03;97448.59;;;4.97;78.18
75146;BME280;63641;46.526;24.612;2022-11-15T11:06:49;97457.72;;;5.13;78.18
75146;BME280;63641;46.526;24.612;2022-11-15T11:11:55;97441.75;;;5.40;77.79
75146;BME280;63641;46.526;24.612;2022-11-15T11:14:29;97432.81;;;5.51;77.70
75146;BME280;63641;46.526;24.612;2022-11-15T11:22:19;97422.69;;;5.75;77.14
75146;BME280;63641;46.526;24.612;2022-11-15T11:33:15;97401.94;;;6.10;76.99
75146;BME280;63641;46.526;24.612;2022-11-15T11:38:51;97390.09;;;6.33;76.42
75146;BME280;63641;46.526;24.612;2022-11-15T11:57:22;97367.06;;;6.64;75.62
75146;BME280;63641;46.526;24.612;2022-11-15T11:59:58;97356.91;;;6.71;75.66
75146;BME280;63641;46.526;24.612;2022-11-15T12:02:39;97341.91;;;6.80;75.51
75146;BME280;63641;46.526;24.612;2022-11-15T12:05:27;97349.78;;;6.92;75.31
75146;BME280;63641;46.526;24.612;2022-11-15T12:08:02;97332.41;;;7.05;75.11
75146;BME280;63641;46.526;24.612;2022-11-15T12:10:32;97331.97;;;7.18;74.71
75146;BME280;63641;46.526;24.612;2022-11-15T12:13:13;97328.28;;;7.29;74.61
75146;BME280;63641;46.526;24.612;2022-11-15T12:15:46;97320.81;;;7.41;74.18
75146;BME280;63641;46.526;24.612;2022-11-15T12:18:15;97320.88;;;7.52;73.86
75146;BME280;63641;46.526;24.612;2022-11-15T12:20:53;97319.03;;;7.62;73.68
75146;BME280;63641;46.526;24.612;2022-11-15T12:23:37;97323.06;;;7.65;73.35
75146;BME280;63641;46.526;24.612;2022-11-15T12:26:14;97319.34;;;7.66;73.13
75146;BME280;63641;46.526;24.612;2022-11-15T12:28:51;97319.28;;;7.61;72.99
75146;BME280;63641;46.526;24.612;2022-11-15T12:31:37;97319.81;;;7.58;73.02
75146;BME280;63641;46.526;24.612;2022-11-15T12:36:47;97318.69;;;7.48;72.92
75146;BME280;63641;46.526;24.612;2022-11-15T12:39:15;97324.63;;;7.50;72.89
75146;BME280;63641;46.526;24.612;2022-11-15T12:41:44;97318.94;;;7.47;72.73
75146;BME280;63641;46.526;24.612;2022-11-15T12:59:49;97296.00;;;6.92;73.27
75146;BME280;63641;46.526;24.612;2022-11-15T13:02:42;97290.03;;;6.85;73.30
75146;BME280;63641;46.526;24.612;2022-11-15T13:17:44;97282.31;;;6.61;73.13
75146;BME280;63641;46.526;24.612;2022-11-15T13:20:17;97285.81;;;6.62;72.98
75146;BME280;63641;46.526;24.612;2022-11-15T13:23:09;97275.56;;;6.59;72.83
75146;BME280;63641;46.526;24.612;2022-11-15T13:30:49;97265.38;;;6.61;72.50
75146;BME280;63641;46.526;24.612;2022-11-15T13:33:43;97266.47;;;6.60;72.55
75146;BME280;63641;46.526;24.612;2022-11-15T13:36:19;97257.59;;;6.59;72.42
75146;BME280;63641;46.526;24.612;2022-11-15T13:39:03;97259.44;;;6.59;72.34
75146;BME280;63641;46.526;24.612;2022-11-15T13:41:32;97261.84;;;6.55;72.25
75146;BME280;63641;46.526;24.612;2022-11-15T13:44:01;97263.19;;;6.52;72.44
75146;BME280;63641;46.526;24.612;2022-11-15T13:46:29;97258.31;;;6.49;72.34
75146;BME280;63641;46.526;24.612;2022-11-15T13:56:33;97252.06;;;6.44;72.04
75146;BME280;63641;46.526;24.612;2022-11-15T14:01:46;97248.34;;;6.45;72.23
75146;BME280;63641;46.526;24.612;2022-11-15T14:04:19;97243.78;;;6.45;72.05
75146;BME280;63641;46.526;24.612;2022-11-15T14:06:52;97244.78;;;6.39;72.14
75146;BME280;63641;46.526;24.612;2022-11-15T14:09:39;97246.94;;;6.37;72.25
75146;BME280;63641;46.526;24.612;2022-11-15T14:14:53;97239.84;;;6.26;72.71
75146;BME280;63641;46.526;24.612;2022-11-15T14:17:40;97239.31;;;6.29;72.61
75146;BME280;63641;46.526;24.612;2022-11-15T14:20:34;97232.03;;;6.24;72.71
75146;BME280;63641;46.526;24.612;2022-11-15T14:23:28;97230.13;;;6.20;72.73
75146;BME280;63641;46.526;24.612;2022-11-15T14:25:56;97224.13;;;6.13;72.78
75146;BME280;63641;46.526;24.612;2022-11-15T14:30:55;97214.38;;;6.01;72.81
75146;BME280;63641;46.526;24.612;2022-11-15T14:33:32;97215.94;;;5.97;72.89
75146;BME280;63641;46.526;24.612;2022-11-15T14:36:16;97210.50;;;5.92;72.90
75146;BME280;63641;46.526;24.612;2022-11-15T14:38:44;97207.72;;;5.82;72.95
75146;BME280;63641;46.526;24.612;2022-11-15T14:41:22;97207.91;;;5.75;72.87
75146;BME280;63641;46.526;24.612;2022-11-15T14:43:51;97202.16;;;5.67;72.90
75146;BME280;63641;46.526;24.612;2022-11-15T14:46:18;97207.50;;;5.62;73.09
75146;BME280;63641;46.526;24.612;2022-11-15T14:48:44;97206.38;;;5.57;73.00
75146;BME280;63641;46.526;24.612;2022-11-15T14:51:17;97211.13;;;5.50;72.93
75146;BME280;63641;46.526;24.612;2022-11-15T14:53:45;97207.25;;;5.41;73.17
75146;BME280;63641;46.526;24.612;2022-11-15T14:56:13;97199.09;;;5.31;73.20
75146;BME280;63641;46.526;24.612;2022-11-15T14:58:40;97195.22;;;5.22;73.41
75146;BME280;63641;46.526;24.612;2022-11-15T15:01:21;97190.03;;;5.15;73.45
75146;BME280;63641;46.526;24.612;2022-11-15T15:03:48;97195.09;;;5.12;73.45
75146;BME280;63641;46.526;24.612;2022-11-15T15:06:15;97193.66;;;5.04;73.53
75146;BME280;63641;46.526;24.612;2022-11-15T15:08:44;97192.22;;;4.96;73.60
75146;BME280;63641;46.526;24.612;2022-11-15T15:11:20;97195.06;;;4.90;73.61
75146;BME280;63641;46.526;24.612;2022-11-15T15:13:47;97190.72;;;4.83;73.73
75146;BME280;63641;46.526;24.612;2022-11-15T15:16:14;97186.34;;;4.77;73.86
75146;BME280;63641;46.526;24.612;2022-11-15T15:18:41;97181.66;;;4.68;73.96
75146;BME280;63641;46.526;24.612;2022-11-15T15:23:43;97183.63;;;4.55;73.98
75146;BME280;63641;46.526;24.612;2022-11-15T15:26:10;97185.09;;;4.46;73.99
75146;BME280;63641;46.526;24.612;2022-11-15T15:28:37;97182.34;;;4.41;74.37
75146;BME280;63641;46.526;24.612;2022-11-15T15:31:07;97188.19;;;4.38;74.36
75146;BME280;63641;46.526;24.612;2022-11-15T15:33:34;97177.16;;;4.34;74.63
75146;BME280;63641;46.526;24.612;2022-11-15T15:36:01;97182.53;;;4.34;74.71
75146;BME280;63641;46.526;24.612;2022-11-15T15:38:28;97188.09;;;4.33;74.75
75146;BME280;63641;46.526;24.612;2022-11-15T15:40:56;97187.22;;;4.27;74.84